Honeoye Falls, NY

6:45 PM EST on January 29, 2015 (GMT -0500)
Mulligan Farms | Change Station
CLOSE
Current Station
Personal Weather Station
Location: Avon, NY
Elevation: 699 ft
Nearby Weather Stations

Elev 699 ft 42.93 °N, 77.71 °W | Updated 6 minutes ago

Overcast
Overcast
31.3 °F
Feels Like 25 °F
N
7.0
Wind Variable Wind from SSW
Gusts 7.0 mph

Today
High -- | Low -- °F
--% Chance of Precip.
Yesterday
High -- | Low -- °F
Precip. -- in
7:29 AM 5:19 PM
Waxing Gibbous, 78% visible
Pressure 29.76 in
Visibility 2.0 miles
Clouds Mostly Cloudy 2300 ft
Overcast 3100 ft
Windchill 25 °F
Dew Point 26 °F
Humidity 80%
Rainfall 0.00 in
Snow Depth Not available.
UV 0 out of 12
Pollen .10 out of 12
Air Quality Not available.
Flu Activity Not available.
SPECI KROC 292301Z COR 19007KT 2SM -SN BKN023 OVC031 00/M04 A2976 RMK AO2 VIS 1V3 BKN V SCT P0000 T00001039

More Conditions Fewer Conditions

Pressure 29.76 in
Visibility 2.0 miles
Clouds Mostly Cloudy 2300 ft
Overcast 3100 ft
Windchill 25 °F
Dew Point 26 °F
Humidity 80%
Rainfall 0.00 in
Snow Depth Not available.
UV 0 out of 12
Pollen .10 out of 12
Air Quality Not available.
Flu Activity Not available.
SPECI KROC 292301Z COR 19007KT 2SM -SN BKN023 OVC031 00/M04 A2976 RMK AO2 VIS 1V3 BKN V SCT P0000 T00001039

More Conditions Fewer Conditions

10-Day Weather Forecast

Almanac

Astronomy

Jan. 29, 2015 Rise Set
Actual Time
Civil Twilight
Nautical Twilight
Astronomical Twilight
Moon
Length of Visible Light
Length of Day
Tomorrow will be .
, % of the Moon is Illuminated

Today's Extremes

State Highs State Lows

Community

WunderPhotos

Upload Photos

1,791,643 photos uploaded!

WunderBlogs® & News

Nearby

Air Quality

  Air Quality AQ Index Pollutant
Not available.

Snow Depth

Station Depth Elevation

Earthquake Activity

City Distance Mag. Time & Date
Minimum magnitude displayed is 2.5.

Coastal Water Temperatures

Place Temperature

Nearby Weather Stations